Time;durP1;ratioP1;P1;durP2;ratioP2;P2;SDS_P1;SDS_P2;PMS_P1;PMS_P2;Temp;Humidity;BMP_temperature;BMP_pressure;BME280_temperature;BME280_humidity;BME280_pressure;Samples;Min_cycle;Max_cycle;Signal;HPM_P1;HPM_P2
2022/01/11 00:00:47;;;;;;;49.20;31.65;;;0.90;99.90;;;;;;5017734;28;20521;-77
2022/01/11 00:03:17;;;;;;;51.03;33.35;;;1.00;99.90;;;;;;5024470;28;20026;-75
2022/01/11 00:06:12;;;;;;;52.05;33.67;;;1.00;99.90;;;;;;5016322;28;20026;-75
2022/01/11 00:08:39;;;;;;;51.90;32.85;;;1.00;99.90;;;;;;5012100;28;20488;-75
2022/01/11 00:11:05;;;;;;;56.47;34.72;;;1.00;99.90;;;;;;5011671;28;20468;-77
2022/01/11 00:13:34;;;;;;;59.38;34.90;;;1.00;99.90;;;;;;5011161;28;20033;-75
2022/01/11 00:16:01;;;;;;;51.53;31.55;;;1.00;99.90;;;;;;5011509;28;20380;-77
2022/01/11 00:18:27;;;;;;;54.53;31.77;;;1.10;99.90;;;;;;5011658;28;20362;-75
2022/01/11 00:20:54;;;;;;;48.67;30.90;;;1.10;99.90;;;;;;5011757;28;20573;-77
2022/01/11 00:25:51;;;;;;;55.75;35.40;;;1.10;99.90;;;;;;5015268;28;20423;-77
2022/01/11 00:28:18;;;;;;;54.40;36.55;;;1.20;99.90;;;;;;5015388;28;20077;-78
2022/01/11 00:31:06;;;;;;;61.88;34.90;;;1.20;99.90;;;;;;5000694;28;20550;-77
2022/01/11 00:33:44;;;;;;;57.45;35.50;;;1.20;99.90;;;;;;5015149;28;20029;-76
2022/01/11 00:36:11;;;;;;;52.08;34.60;;;1.20;99.90;;;;;;4997798;28;20029;-76
2022/01/11 00:38:39;;;;;;;54.25;35.25;;;1.20;99.90;;;;;;4997456;28;20068;-76
2022/01/11 00:41:08;;;;;;;52.60;33.17;;;1.30;99.90;;;;;;4997590;28;20034;-77
2022/01/11 00:43:35;;;;;;;53.13;33.95;;;1.30;99.90;;;;;;4997353;28;20392;-77
2022/01/11 00:46:02;;;;;;;52.83;32.92;;;1.30;99.90;;;;;;4997200;28;20125;-75
2022/01/11 00:48:28;;;;;;;50.22;31.92;;;1.30;99.90;;;;;;5014997;28;20105;-76
2022/01/11 00:50:55;;;;;;;51.22;32.00;;;1.20;99.90;;;;;;5015058;28;20346;-78
2022/01/11 00:53:22;;;;;;;45.60;31.33;;;1.20;99.90;;;;;;5014880;28;20022;-78
2022/01/11 00:55:50;;;;;;;49.15;32.53;;;1.20;99.90;;;;;;4997302;28;20033;-77
2022/01/11 00:58:18;;;;;;;48.30;29.08;;;1.30;99.90;;;;;;5015054;28;20042;-77
2022/01/11 01:00:44;;;;;;;51.47;32.22;;;1.20;99.90;;;;;;4997186;28;20076;-78
2022/01/11 01:03:10;;;;;;;52.53;31.60;;;1.30;99.90;;;;;;4997531;28;20025;-77
2022/01/11 01:05:37;;;;;;;51.65;31.48;;;1.30;99.90;;;;;;5017027;28;20022;-78
2022/01/11 01:08:05;;;;;;;53.30;31.55;;;1.30;99.90;;;;;;4998231;28;20022;-77
2022/01/11 01:10:37;;;;;;;53.50;30.33;;;1.20;99.90;;;;;;5001632;28;20065;-75
2022/01/11 01:13:09;;;;;;;55.40;30.70;;;1.20;99.90;;;;;;5019902;28;20030;-76
2022/01/11 01:15:36;;;;;;;47.35;29.60;;;1.20;99.90;;;;;;4997004;28;20044;-76
2022/01/11 01:18:14;;;;;;;54.28;30.98;;;1.20;99.90;;;;;;5026773;28;20264;-75
2022/01/11 01:20:40;;;;;;;50.83;27.98;;;1.20;99.90;;;;;;4997062;28;20030;-76
2022/01/11 01:23:07;;;;;;;44.47;28.15;;;1.20;99.90;;;;;;5000085;28;20091;-76
2022/01/11 01:25:33;;;;;;;41.00;26.75;;;1.10;99.90;;;;;;4996715;28;20129;-77
2022/01/11 01:27:59;;;;;;;53.17;29.52;;;1.10;99.90;;;;;;5014307;28;20029;-76
2022/01/11 01:30:25;;;;;;;43.90;25.88;;;1.20;99.90;;;;;;5013908;28;20041;-78
2022/01/11 01:32:52;;;;;;;44.83;27.20;;;1.10;99.90;;;;;;4995441;28;20472;-78
2022/01/11 01:35:22;;;;;;;40.70;23.80;;;1.10;99.90;;;;;;5014277;28;20026;-77
2022/01/11 01:37:48;;;;;;;40.30;24.35;;;1.00;99.90;;;;;;5014516;28;20033;-78
2022/01/11 01:40:17;;;;;;;40.25;23.27;;;1.10;99.90;;;;;;5014096;28;20022;-78
2022/01/11 01:42:46;;;;;;;37.08;21.88;;;1.10;99.90;;;;;;5026414;28;20487;-75
2022/01/11 01:45:13;;;;;;;36.97;23.17;;;1.00;99.90;;;;;;5022930;28;20022;-76
2022/01/11 01:47:40;;;;;;;38.33;22.95;;;1.00;99.90;;;;;;4997892;28;20025;-75
2022/01/11 01:50:08;;;;;;;35.78;21.75;;;1.00;99.90;;;;;;5013932;28;20026;-74
2022/01/11 01:52:35;;;;;;;41.47;23.02;;;1.00;99.90;;;;;;5013953;28;20148;-76
2022/01/11 01:55:01;;;;;;;35.15;21.73;;;0.90;99.90;;;;;;4995529;28;20137;-77
2022/01/11 01:57:27;;;;;;;39.22;23.77;;;0.90;99.90;;;;;;5026764;28;20050;-78
2022/01/11 01:59:54;;;;;;;33.42;21.55;;;1.00;99.90;;;;;;5002806;28;20022;-78
2022/01/11 02:02:20;;;;;;;35.75;20.38;;;0.90;99.90;;;;;;5006055;28;20030;-77
2022/01/11 02:04:48;;;;;;;38.10;22.58;;;1.00;99.90;;;;;;5012307;28;20033;-77
2022/01/11 02:07:14;;;;;;;35.33;23.65;;;0.90;99.90;;;;;;5012249;28;20030;-77
2022/01/11 02:09:41;;;;;;;36.08;21.70;;;1.00;99.90;;;;;;4995297;28;20060;-77
2022/01/11 02:12:08;;;;;;;35.58;21.58;;;0.90;99.90;;;;;;4995552;28;20037;-76
2022/01/11 02:14:34;;;;;;;34.83;20.60;;;0.90;99.90;;;;;;4995978;28;20109;-76
2022/01/11 02:17:02;;;;;;;37.42;22.42;;;0.90;99.90;;;;;;4995549;28;20029;-74
2022/01/11 02:19:29;;;;;;;34.20;20.67;;;0.90;99.90;;;;;;4995808;28;20049;-77
2022/01/11 02:21:55;;;;;;;35.10;21.33;;;0.90;99.90;;;;;;5010530;28;20397;-76
2022/01/11 02:24:22;;;;;;;39.83;22.88;;;0.90;99.90;;;;;;4995613;28;20487;-75
2022/01/11 02:26:49;;;;;;;40.97;22.40;;;0.90;99.90;;;;;;5008939;28;20065;-77
2022/01/11 02:29:16;;;;;;;38.28;22.52;;;0.90;99.90;;;;;;4979693;28;20029;-77
2022/01/11 02:31:44;;;;;;;32.97;20.48;;;0.90;99.90;;;;;;4995597;28;20128;-77
2022/01/11 02:34:11;;;;;;;39.15;22.38;;;0.90;99.90;;;;;;4995681;28;20024;-75
2022/01/11 02:37:06;;;;;;;35.60;20.38;;;0.90;99.90;;;;;;4944367;29;20418;-78
2022/01/11 02:39:37;;;;;;;34.80;20.10;;;0.90;99.90;;;;;;4936300;29;20066;-77
2022/01/11 02:42:15;;;;;;;33.70;19.75;;;0.90;99.90;;;;;;4949119;29;20102;-78
2022/01/11 02:44:43;;;;;;;34.42;20.05;;;0.90;99.90;;;;;;4955666;28;20063;-78
2022/01/11 02:47:15;;;;;;;33.33;19.20;;;0.90;99.90;;;;;;4952267;28;20065;-77
2022/01/11 02:49:42;;;;;;;37.13;19.67;;;0.90;99.90;;;;;;4954475;29;20031;-76
2022/01/11 02:52:13;;;;;;;33.42;20.30;;;0.90;99.90;;;;;;4952060;28;20559;-76
2022/01/11 02:54:42;;;;;;;32.92;19.50;;;0.90;99.90;;;;;;4952067;28;20090;-78
2022/01/11 02:57:16;;;;;;;33.67;18.60;;;1.00;99.90;;;;;;4952333;29;20106;-79
2022/01/11 02:59:42;;;;;;;30.58;18.98;;;0.90;99.90;;;;;;4968155;28;20023;-78
2022/01/11 03:02:10;;;;;;;35.50;20.40;;;0.90;99.90;;;;;;4971366;28;20046;-78
2022/01/11 03:04:37;;;;;;;32.40;20.02;;;0.90;99.90;;;;;;4955470;28;20454;-78
2022/01/11 03:07:03;;;;;;;34.15;21.92;;;1.00;99.90;;;;;;4955154;28;20039;-76
2022/01/11 03:09:48;;;;;;;33.90;20.27;;;1.00;99.90;;;;;;4954893;28;20058;-77
2022/01/11 03:12:17;;;;;;;33.03;19.85;;;1.00;99.90;;;;;;4970994;28;20035;-75
2022/01/11 03:14:43;;;;;;;39.83;22.15;;;1.00;99.90;;;;;;4972071;28;20028;-78
2022/01/11 03:17:08;;;;;;;37.15;22.15;;;1.10;99.90;;;;;;4980242;28;20460;-78
2022/01/11 03:19:35;;;;;;;32.67;19.48;;;1.00;99.90;;;;;;4988017;28;20474;-78
2022/01/11 03:22:01;;;;;;;31.15;18.15;;;1.00;99.90;;;;;;4988423;28;20031;-78
2022/01/11 03:24:27;;;;;;;28.90;18.38;;;1.00;99.90;;;;;;4973017;28;20030;-77
2022/01/11 03:26:53;;;;;;;29.58;18.30;;;1.00;99.90;;;;;;4972991;28;20033;-76
2022/01/11 03:29:19;;;;;;;29.88;17.95;;;1.00;99.90;;;;;;4985147;28;20562;-76
2022/01/11 03:31:45;;;;;;;30.25;17.17;;;1.10;99.90;;;;;;4997465;28;20030;-76
2022/01/11 03:34:18;;;;;;;26.45;16.20;;;1.10;99.90;;;;;;4994972;28;20109;-76
2022/01/11 03:36:46;;;;;;;29.48;18.35;;;1.10;99.90;;;;;;4993523;28;20037;-77
2022/01/11 03:39:12;;;;;;;28.08;15.82;;;1.10;99.90;;;;;;4984210;28;20019;-77
2022/01/11 03:41:39;;;;;;;31.48;15.23;;;1.10;99.90;;;;;;4991312;28;20038;-77
2022/01/11 03:44:06;;;;;;;26.17;15.63;;;1.10;99.90;;;;;;4990875;28;20019;-77
2022/01/11 03:46:33;;;;;;;26.30;15.23;;;1.10;99.90;;;;;;4992321;28;20096;-76
2022/01/11 03:49:02;;;;;;;28.50;15.55;;;1.10;99.90;;;;;;4973898;28;20033;-77
2022/01/11 03:51:35;;;;;;;26.42;16.25;;;1.10;99.90;;;;;;4998856;28;20046;-78
2022/01/11 03:54:15;;;;;;;30.35;16.98;;;1.10;99.90;;;;;;5003869;28;20501;-76
2022/01/11 03:57:01;;;;;;;26.13;15.82;;;1.10;99.90;;;;;;4994716;28;20046;-75
2022/01/11 03:59:33;;;;;;;26.90;14.20;;;1.00;99.90;;;;;;4998878;28;20108;-75
2022/01/11 04:02:00;;;;;;;31.33;15.65;;;1.00;99.90;;;;;;4994308;28;20065;-77
2022/01/11 04:04:26;;;;;;;27.35;15.07;;;0.90;99.90;;;;;;4994238;28;20053;-76
2022/01/11 04:06:52;;;;;;;28.70;17.05;;;0.90;99.90;;;;;;4997058;28;20028;-75
2022/01/11 04:09:19;;;;;;;26.67;16.13;;;0.90;99.90;;;;;;4997076;28;20387;-76
2022/01/11 04:11:45;;;;;;;28.58;15.65;;;0.90;99.90;;;;;;5012247;28;20479;-75
2022/01/11 04:14:11;;;;;;;27.10;16.05;;;0.90;99.90;;;;;;5001301;28;20033;-77
2022/01/11 04:16:38;;;;;;;30.00;17.48;;;0.80;99.90;;;;;;4993730;28;20492;-76
2022/01/11 04:19:06;;;;;;;27.23;15.85;;;0.80;99.90;;;;;;5010352;28;20034;-77
2022/01/11 04:21:37;;;;;;;26.50;16.50;;;0.80;99.90;;;;;;5010113;28;20034;-77
2022/01/11 04:24:03;;;;;;;32.83;18.98;;;0.80;99.90;;;;;;5019267;28;20022;-76
2022/01/11 04:26:29;;;;;;;32.30;20.02;;;0.80;99.90;;;;;;5002580;28;20418;-77
2022/01/11 04:29:00;;;;;;;33.60;22.23;;;0.80;99.90;;;;;;5016206;28;20084;-76
2022/01/11 04:31:26;;;;;;;36.10;22.85;;;0.80;99.90;;;;;;4997877;28;20037;-77
2022/01/11 04:33:52;;;;;;;36.20;23.52;;;0.80;99.90;;;;;;4993907;28;20032;-77
2022/01/11 04:36:18;;;;;;;38.10;24.45;;;0.80;99.90;;;;;;4993936;28;20030;-77
2022/01/11 04:38:45;;;;;;;35.38;23.02;;;0.80;99.90;;;;;;5010079;28;20029;-78
2022/01/11 04:41:14;;;;;;;37.60;23.25;;;0.80;99.90;;;;;;4993773;28;20472;-75
2022/01/11 04:43:45;;;;;;;36.00;22.67;;;0.80;99.90;;;;;;5017253;28;20468;-77
2022/01/11 04:46:11;;;;;;;35.65;24.80;;;0.80;99.90;;;;;;5009794;28;20041;-77
2022/01/11 04:48:37;;;;;;;37.28;21.27;;;0.80;99.90;;;;;;5000205;28;20026;-78
2022/01/11 04:51:05;;;;;;;40.47;22.50;;;0.70;99.90;;;;;;5010397;28;20049;-74
2022/01/11 04:53:31;;;;;;;35.08;21.55;;;0.80;99.90;;;;;;4993664;28;20049;-78
2022/01/11 04:55:58;;;;;;;34.78;21.90;;;0.70;99.90;;;;;;5010151;28;20057;-75
2022/01/11 04:58:24;;;;;;;40.42;23.70;;;0.70;99.90;;;;;;4993638;28;20070;-78
2022/01/11 05:00:51;;;;;;;36.78;23.08;;;0.60;99.90;;;;;;5009699;28;20085;-77
2022/01/11 05:03:19;;;;;;;30.55;18.20;;;0.70;99.90;;;;;;5003647;28;20030;-77
2022/01/11 05:05:51;;;;;;;30.98;18.33;;;0.70;99.90;;;;;;5013916;28;20064;-75
2022/01/11 05:08:17;;;;;;;32.50;17.60;;;0.60;99.90;;;;;;4994495;28;20041;-76
2022/01/11 05:10:43;;;;;;;31.50;19.70;;;0.60;99.90;;;;;;5014299;28;20034;-77
2022/01/11 05:13:14;;;;;;;29.90;17.88;;;0.60;99.90;;;;;;5013091;28;20072;-77
2022/01/11 05:15:42;;;;;;;29.20;18.02;;;0.70;99.90;;;;;;5012687;28;20526;-72
2022/01/11 05:18:11;;;;;;;32.30;19.45;;;0.70;99.90;;;;;;4996561;28;20026;-77
2022/01/11 05:20:39;;;;;;;37.95;24.83;;;0.70;99.90;;;;;;5003773;28;20041;-74
2022/01/11 05:23:09;;;;;;;38.25;25.55;;;0.70;99.90;;;;;;5004785;28;20026;-74
2022/01/11 05:25:36;;;;;;;39.92;25.70;;;0.60;99.90;;;;;;4998401;28;20030;-76
2022/01/11 05:28:03;;;;;;;39.03;25.85;;;0.70;99.90;;;;;;5028157;28;20195;-75
2022/01/11 05:30:30;;;;;;;32.78;19.02;;;0.70;99.90;;;;;;4997077;28;20045;-76
2022/01/11 05:32:57;;;;;;;32.80;20.10;;;0.60;99.90;;;;;;4996788;28;20022;-75
2022/01/11 05:35:25;;;;;;;35.05;19.67;;;0.60;99.90;;;;;;5012766;28;20032;-75
2022/01/11 05:37:51;;;;;;;29.42;16.95;;;0.50;99.90;;;;;;4996107;28;20026;-73
2022/01/11 05:40:22;;;;;;;25.50;16.20;;;0.60;99.90;;;;;;5012444;28;20274;-74
2022/01/11 05:42:52;;;;;;;29.55;16.98;;;0.60;99.90;;;;;;4994882;28;20026;-75
2022/01/11 05:45:20;;;;;;;43.15;26.80;;;0.40;99.90;;;;;;5011932;28;20370;-73
2022/01/11 05:47:48;;;;;;;40.42;26.80;;;0.50;99.90;;;;;;5015196;28;20032;-73
2022/01/11 05:50:15;;;;;;;40.28;24.08;;;0.40;99.90;;;;;;4997759;28;20033;-75
2022/01/11 05:52:45;;;;;;;41.88;22.98;;;0.40;99.90;;;;;;4994535;28;20040;-74
2022/01/11 05:55:12;;;;;;;32.95;17.30;;;0.40;99.90;;;;;;5012828;28;20018;-74
2022/01/11 05:57:41;;;;;;;30.70;15.73;;;0.40;99.90;;;;;;5012972;28;20065;-72
2022/01/11 06:00:10;;;;;;;25.40;15.55;;;0.30;99.90;;;;;;5013818;28;20018;-75
2022/01/11 06:02:42;;;;;;;28.55;16.63;;;0.30;99.90;;;;;;5021088;28;20124;-76
2022/01/11 06:05:13;;;;;;;29.08;14.65;;;0.40;99.90;;;;;;5001894;28;20451;-76
2022/01/11 06:07:40;;;;;;;31.63;17.30;;;0.30;99.90;;;;;;5028942;28;20026;-73
2022/01/11 06:10:08;;;;;;;30.02;17.40;;;0.30;99.90;;;;;;5011858;28;20030;-76
2022/01/11 06:12:36;;;;;;;30.70;17.55;;;0.40;99.90;;;;;;5028627;28;20536;-75
2022/01/11 06:15:03;;;;;;;26.45;14.80;;;0.40;99.90;;;;;;5022623;28;20030;-73
2022/01/11 06:17:31;;;;;;;29.85;17.27;;;0.40;99.90;;;;;;5013151;28;20033;-75
2022/01/11 06:19:57;;;;;;;28.80;16.13;;;0.40;99.90;;;;;;4993836;28;20049;-76
2022/01/11 06:22:28;;;;;;;28.67;15.88;;;0.40;99.90;;;;;;4990952;28;20396;-73
2022/01/11 06:24:54;;;;;;;30.48;17.30;;;0.50;99.90;;;;;;5001387;28;20026;-70
2022/01/11 06:27:20;;;;;;;29.10;16.45;;;0.40;99.90;;;;;;5025970;28;20471;-74
2022/01/11 06:29:46;;;;;;;30.67;18.60;;;0.40;99.90;;;;;;5013850;28;20113;-70
2022/01/11 06:32:12;;;;;;;34.58;19.10;;;0.50;99.90;;;;;;5014143;28;20119;-76
2022/01/11 06:34:38;;;;;;;40.28;20.10;;;0.50;99.90;;;;;;5003573;28;20026;-74
2022/01/11 06:37:04;;;;;;;55.47;29.10;;;0.50;99.90;;;;;;4991953;28;20042;-75
2022/01/11 06:39:36;;;;;;;27.98;16.40;;;0.50;99.90;;;;;;4992166;28;20038;-75
2022/01/11 06:42:04;;;;;;;27.98;15.40;;;0.50;99.90;;;;;;4991775;28;20065;-71
2022/01/11 06:44:32;;;;;;;32.83;17.00;;;0.50;99.90;;;;;;5004457;28;20032;-72
2022/01/11 06:46:58;;;;;;;24.55;13.80;;;0.50;99.90;;;;;;5006842;28;20025;-74
2022/01/11 06:49:24;;;;;;;31.15;17.92;;;0.50;99.90;;;;;;5015186;28;20037;-74
2022/01/11 06:51:52;;;;;;;30.90;16.35;;;0.50;99.90;;;;;;4994814;28;20065;-75
2022/01/11 06:54:19;;;;;;;30.70;16.10;;;0.50;99.90;;;;;;4994610;28;20092;-76
2022/01/11 06:56:46;;;;;;;28.63;18.08;;;0.50;99.90;;;;;;4994108;28;20030;-74
2022/01/11 06:59:14;;;;;;;31.75;18.67;;;0.40;99.90;;;;;;4994816;28;20499;-76
2022/01/11 07:01:41;;;;;;;30.67;16.73;;;0.40;99.90;;;;;;4998045;28;20030;-75
2022/01/11 07:04:19;;;;;;;33.35;17.73;;;0.40;99.90;;;;;;4994622;28;20532;-76
2022/01/11 07:06:48;;;;;;;27.63;15.32;;;0.50;99.90;;;;;;5011247;28;20033;-72
2022/01/11 07:09:14;;;;;;;30.65;15.52;;;0.50;99.90;;;;;;4994910;28;20041;-74
2022/01/11 07:11:41;;;;;;;27.25;15.27;;;0.50;99.90;;;;;;4993930;28;20061;-75
2022/01/11 07:14:07;;;;;;;25.45;14.65;;;0.50;99.90;;;;;;5011954;28;20054;-76
2022/01/11 07:16:33;;;;;;;28.70;15.30;;;0.50;99.90;;;;;;5010493;28;20056;-72
2022/01/11 07:19:01;;;;;;;27.40;16.40;;;0.50;99.90;;;;;;4994003;28;20076;-75
2022/01/11 07:21:27;;;;;;;30.55;17.15;;;0.50;99.90;;;;;;5011772;28;20042;-76
2022/01/11 07:23:53;;;;;;;30.33;17.63;;;0.60;99.90;;;;;;4994314;28;20361;-73
2022/01/11 07:26:19;;;;;;;34.40;21.52;;;0.60;99.90;;;;;;5012285;28;20037;-73
2022/01/11 07:28:46;;;;;;;42.35;24.77;;;0.60;99.90;;;;;;5012119;28;20097;-76
2022/01/11 07:31:15;;;;;;;40.17;25.67;;;0.70;99.90;;;;;;5008304;28;20064;-76
2022/01/11 07:33:46;;;;;;;42.63;27.55;;;0.70;99.90;;;;;;5003644;28;20454;-76
2022/01/11 07:36:13;;;;;;;48.42;31.25;;;0.70;99.90;;;;;;5000243;28;20099;-75
2022/01/11 07:38:41;;;;;;;50.30;30.25;;;0.70;99.90;;;;;;4994436;28;20018;-74
2022/01/11 07:41:13;;;;;;;49.03;26.58;;;0.70;99.90;;;;;;5014441;28;20423;-75
2022/01/11 07:44:00;;;;;;;49.72;28.17;;;0.70;99.90;;;;;;5010375;28;20026;-75
2022/01/11 07:46:32;;;;;;;;;;;0.70;99.90;;;;;;5010792;28;20436;-76
2022/01/11 07:49:00;;;;;;;47.05;24.52;;;0.80;99.90;;;;;;4994759;28;20367;-75
2022/01/11 07:51:27;;;;;;;39.33;22.05;;;0.70;99.90;;;;;;4993782;28;20407;-74
2022/01/11 07:53:53;;;;;;;51.20;25.52;;;0.70;99.90;;;;;;4993727;28;20057;-76
2022/01/11 07:56:21;;;;;;;39.60;21.58;;;0.70;99.90;;;;;;4994171;28;20137;-75
2022/01/11 07:58:47;;;;;;;52.90;29.67;;;0.70;99.90;;;;;;4992954;28;20361;-75
2022/01/11 08:01:17;;;;;;;43.38;23.90;;;0.70;99.90;;;;;;4993989;28;20129;-75
2022/01/11 08:03:46;;;;;;;38.95;21.63;;;0.80;99.90;;;;;;4993275;28;20022;-76
2022/01/11 08:06:23;;;;;;;39.80;19.70;;;0.80;99.90;;;;;;4993472;28;20049;-73
2022/01/11 08:08:57;;;;;;;30.73;18.70;;;0.80;99.90;;;;;;4990909;28;20037;-74
2022/01/11 08:11:23;;;;;;;53.15;26.67;;;0.80;99.90;;;;;;4989978;28;20503;-75
2022/01/11 08:13:49;;;;;;;59.67;32.30;;;0.80;99.90;;;;;;4993737;28;20109;-74
2022/01/11 08:16:16;;;;;;;88.07;45.90;;;0.80;99.90;;;;;;5009825;28;20396;-75
2022/01/11 08:18:43;;;;;;;82.35;45.33;;;0.80;99.90;;;;;;5027158;28;20018;-75
2022/01/11 08:21:17;;;;;;;61.35;35.30;;;0.80;99.90;;;;;;5012198;28;20121;-74
2022/01/11 08:23:44;;;;;;;67.72;36.75;;;0.80;99.90;;;;;;5021569;28;20046;-77
2022/01/11 08:26:10;;;;;;;46.45;28.67;;;0.80;99.90;;;;;;5017385;28;20028;-76
2022/01/11 08:28:37;;;;;;;66.40;38.97;;;0.80;99.90;;;;;;4992868;28;20034;-74
2022/01/11 08:31:06;;;;;;;59.95;37.95;;;0.80;99.90;;;;;;5016179;28;20036;-76
2022/01/11 08:33:38;;;;;;;49.90;29.88;;;0.80;99.90;;;;;;4992745;28;20120;-76
2022/01/11 08:36:06;;;;;;;49.22;28.92;;;0.70;99.90;;;;;;4993422;28;20054;-75
2022/01/11 08:38:37;;;;;;;41.65;22.80;;;0.80;99.90;;;;;;5009961;28;20431;-73
2022/01/11 08:41:07;;;;;;;44.17;24.85;;;0.70;99.90;;;;;;5011396;28;20026;-76
2022/01/11 08:43:34;;;;;;;42.42;23.95;;;0.80;99.90;;;;;;4995446;28;20072;-73
2022/01/11 08:46:02;;;;;;;38.55;23.20;;;0.80;99.90;;;;;;4997337;28;20391;-76
2022/01/11 08:48:31;;;;;;;37.95;19.48;;;0.80;99.90;;;;;;5013486;28;20041;-75
2022/01/11 08:51:03;;;;;;;43.30;22.23;;;0.70;99.90;;;;;;4996843;28;20484;-75
2022/01/11 08:53:32;;;;;;;40.28;22.00;;;0.80;99.90;;;;;;4997220;28;20037;-74
2022/01/11 08:56:05;;;;;;;40.33;24.55;;;0.90;99.90;;;;;;4996840;28;20423;-74
2022/01/11 08:58:33;;;;;;;34.85;19.67;;;0.90;99.90;;;;;;4996595;28;20037;-74
2022/01/11 09:00:59;;;;;;;33.88;19.35;;;0.80;99.90;;;;;;4997201;28;20121;-74
2022/01/11 09:03:28;;;;;;;31.50;18.10;;;0.80;99.90;;;;;;4995918;28;20024;-75
2022/01/11 09:05:54;;;;;;;33.70;17.80;;;0.80;99.90;;;;;;4995724;28;20133;-74
2022/01/11 09:08:20;;;;;;;30.23;17.15;;;0.90;99.90;;;;;;4996305;28;20026;-74
2022/01/11 09:10:47;;;;;;;27.95;15.40;;;0.90;99.90;;;;;;4995342;28;20049;-74
2022/01/11 09:13:15;;;;;;;30.73;16.13;;;0.90;99.90;;;;;;4996339;28;20539;-73
2022/01/11 09:15:41;;;;;;;27.95;16.05;;;0.90;99.90;;;;;;4996656;28;20036;-74
2022/01/11 09:18:10;;;;;;;27.35;14.50;;;0.90;99.90;;;;;;4980156;28;20376;-74
2022/01/11 09:20:38;;;;;;;29.48;17.50;;;1.00;99.90;;;;;;5008222;28;20432;-74
2022/01/11 09:23:05;;;;;;;28.98;15.43;;;0.90;99.90;;;;;;5004919;28;20040;-73
2022/01/11 09:25:34;;;;;;;30.23;15.40;;;0.90;99.90;;;;;;4997116;28;20084;-74
2022/01/11 09:28:05;;;;;;;30.58;15.63;;;0.80;99.90;;;;;;4996286;28;20040;-75
2022/01/11 09:30:32;;;;;;;31.65;17.02;;;0.80;99.90;;;;;;5007166;28;20072;-76
2022/01/11 09:33:01;;;;;;;30.30;16.48;;;0.80;99.90;;;;;;4975762;28;20392;-75
2022/01/11 09:35:32;;;;;;;31.55;17.70;;;0.80;99.90;;;;;;4988403;28;20037;-76
2022/01/11 09:38:12;;;;;;;28.70;16.38;;;0.80;99.90;;;;;;4981909;28;20030;-74
2022/01/11 09:40:40;;;;;;;28.20;15.57;;;0.80;99.90;;;;;;5009414;28;20038;-75
2022/01/11 09:43:08;;;;;;;35.95;19.27;;;0.70;99.90;;;;;;5013921;28;20088;-75
2022/01/11 09:45:37;;;;;;;33.67;17.73;;;0.80;99.90;;;;;;4996201;28;20025;-75
2022/01/11 09:48:05;;;;;;;34.47;19.63;;;0.80;99.90;;;;;;5016914;28;20600;-76
2022/01/11 09:50:37;;;;;;;29.83;17.52;;;0.90;99.90;;;;;;4996273;28;20049;-74
2022/01/11 09:53:05;;;;;;;35.17;21.70;;;0.90;99.90;;;;;;4992302;28;20026;-73
2022/01/11 09:55:36;;;;;;;34.30;18.33;;;0.80;99.90;;;;;;4985580;28;20033;-72
2022/01/11 09:58:05;;;;;;;33.45;19.52;;;0.90;99.90;;;;;;4993548;28;20050;-75
2022/01/11 10:00:52;;;;;;;31.40;18.48;;;0.90;99.90;;;;;;4933089;29;20035;-76
2022/01/11 10:03:58;;;;;;;33.00;17.95;;;0.90;99.90;;;;;;4932951;29;20075;-76
2022/01/11 10:06:32;;;;;;;33.97;19.85;;;1.00;99.90;;;;;;4913810;29;20095;-76
2022/01/11 10:09:08;;;;;;;27.05;15.43;;;1.00;99.90;;;;;;4895416;29;20467;-77
2022/01/11 10:11:37;;;;;;;30.33;15.55;;;1.00;99.90;;;;;;4917508;29;20075;-73
2022/01/11 10:14:32;;;;;;;28.23;17.38;;;0.90;99.90;;;;;;4914207;29;20270;-73
2022/01/11 10:17:19;;;;;;;26.38;14.30;;;1.00;99.90;;;;;;4895134;29;20047;-76
2022/01/11 10:20:14;;;;;;;29.60;17.70;;;1.00;99.90;;;;;;4909902;29;20387;-74
2022/01/11 10:23:05;;;;;;;32.30;16.95;;;1.00;99.90;;;;;;4909387;29;20053;-76
2022/01/11 10:25:46;;;;;;;34.40;20.08;;;0.90;99.90;;;;;;4898274;29;20402;-74
2022/01/11 10:28:13;;;;;;;28.88;16.30;;;0.90;99.90;;;;;;4914389;29;20691;-76
2022/01/11 10:30:42;;;;;;;38.88;18.23;;;0.90;99.90;;;;;;4924612;29;20059;-76
2022/01/11 10:33:10;;;;;;;32.60;18.48;;;0.90;99.90;;;;;;4914644;29;20091;-75
2022/01/11 10:35:48;;;;;;;35.60;19.50;;;0.90;99.90;;;;;;4914832;29;20048;-75
2022/01/11 10:38:35;;;;;;;35.08;18.83;;;1.00;99.90;;;;;;4952285;28;20043;-75
2022/01/11 10:41:08;;;;;;;34.78;19.95;;;1.00;99.90;;;;;;4981276;28;20392;-75
2022/01/11 10:43:43;;;;;;;27.83;15.75;;;1.00;99.90;;;;;;4993807;28;20033;-76
2022/01/11 10:46:12;;;;;;;36.40;18.50;;;1.00;99.90;;;;;;4995140;28;20519;-77
2022/01/11 10:48:39;;;;;;;33.17;18.17;;;1.00;99.90;;;;;;5011187;28;20500;-77
2022/01/11 10:51:15;;;;;;;26.90;15.68;;;1.00;99.90;;;;;;5022274;28;20727;-72
2022/01/11 10:53:49;;;;;;;30.85;18.85;;;1.00;99.90;;;;;;5011611;28;20044;-77
2022/01/11 10:56:18;;;;;;;34.35;17.85;;;1.10;99.90;;;;;;5008785;28;20142;-75
2022/01/11 10:59:10;;;;;;;28.83;14.68;;;1.00;99.90;;;;;;4994306;28;20490;-76
2022/01/11 11:01:44;;;;;;;26.55;16.30;;;1.10;99.90;;;;;;4995286;28;20571;-77
2022/01/11 11:04:30;;;;;;;26.38;15.15;;;1.30;99.90;;;;;;4994078;28;20124;-76
2022/01/11 11:07:14;;;;;;;26.77;15.00;;;1.40;99.90;;;;;;4994424;28;20029;-77
2022/01/11 11:09:50;;;;;;;27.02;14.95;;;1.30;99.90;;;;;;4994460;28;20484;-74
2022/01/11 11:12:21;;;;;;;28.42;17.85;;;1.20;99.90;;;;;;4993531;28;20034;-74
2022/01/11 11:15:09;;;;;;;29.67;18.13;;;1.10;99.90;;;;;;4993657;28;20029;-75
2022/01/11 11:17:40;;;;;;;42.90;24.13;;;1.20;99.90;;;;;;4994239;28;20037;-76
2022/01/11 11:20:20;;;;;;;56.22;31.73;;;1.30;99.90;;;;;;4980306;28;20030;-76
2022/01/11 11:22:46;;;;;;;71.35;40.05;;;1.30;99.90;;;;;;5011579;28;20037;-74
2022/01/11 11:25:12;;;;;;;81.18;43.88;;;1.30;99.90;;;;;;5011715;28;20049;-77
2022/01/11 11:27:38;;;;;;;62.50;36.35;;;1.20;99.90;;;;;;5011691;28;20048;-76
2022/01/11 11:30:05;;;;;;;42.90;25.20;;;1.10;99.90;;;;;;5011827;28;20496;-77
2022/01/11 11:32:32;;;;;;;38.30;21.92;;;1.10;99.90;;;;;;5011662;28;20050;-75
2022/01/11 11:34:59;;;;;;;35.53;22.15;;;1.10;99.90;;;;;;5011365;28;20029;-75
2022/01/11 11:37:37;;;;;;;29.08;17.27;;;1.20;99.90;;;;;;5011438;28;20024;-74
2022/01/11 11:40:11;;;;;;;30.92;17.88;;;1.10;99.90;;;;;;5011746;28;20108;-75
2022/01/11 11:42:39;;;;;;;30.20;17.40;;;1.10;99.90;;;;;;5011971;28;20033;-75
2022/01/11 11:45:19;;;;;;;32.22;20.42;;;1.00;99.90;;;;;;5011888;28;20026;-77
2022/01/11 11:47:45;;;;;;;33.53;18.85;;;0.90;99.90;;;;;;5010880;28;20033;-77
2022/01/11 11:50:22;;;;;;;35.13;19.98;;;0.90;99.90;;;;;;5011161;28;20444;-74
2022/01/11 11:52:51;;;;;;;34.22;19.30;;;1.00;99.90;;;;;;5010794;28;20037;-75
2022/01/11 11:55:23;;;;;;;32.25;17.73;;;0.90;99.90;;;;;;5010735;28;20082;-75
2022/01/11 11:57:53;;;;;;;40.10;19.92;;;1.00;99.90;;;;;;4993123;28;20071;-75
2022/01/11 12:00:30;;;;;;;33.28;18.15;;;1.10;99.90;;;;;;5010386;28;20029;-76
2022/01/11 12:03:02;;;;;;;27.23;16.20;;;1.10;99.90;;;;;;4993795;28;20484;-76
2022/01/11 12:05:38;;;;;;;39.05;20.13;;;1.20;99.90;;;;;;4993124;28;20034;-75
2022/01/11 12:08:36;;;;;;;40.72;19.38;;;1.10;99.90;;;;;;5011681;28;20037;-75
2022/01/11 12:11:11;;;;;;;70.50;39.53;;;1.10;99.90;;;;;;4993276;28;20042;-76
2022/01/11 12:13:41;;;;;;;50.55;28.00;;;1.10;99.90;;;;;;4999416;28;20026;-77
2022/01/11 12:16:39;;;;;;;98.65;53.03;;;1.10;99.90;;;;;;5005567;28;20034;-76
2022/01/11 12:19:10;;;;;;;76.88;39.97;;;1.20;99.90;;;;;;5013803;28;20384;-76
2022/01/11 12:22:03;;;;;;;77.70;44.30;;;1.10;99.90;;;;;;5014570;28;20026;-78
2022/01/11 12:24:38;;;;;;;55.88;31.27;;;1.10;99.90;;;;;;4997192;28;20030;-78
2022/01/11 12:27:06;;;;;;;54.80;30.23;;;1.20;99.90;;;;;;5019140;28;20048;-75
2022/01/11 12:29:33;;;;;;;39.90;21.83;;;1.10;99.90;;;;;;5021987;28;20022;-75
2022/01/11 12:32:07;;;;;;;35.05;21.42;;;1.00;99.90;;;;;;5014505;28;20494;-76
2022/01/11 12:34:46;;;;;;;32.53;18.60;;;1.10;99.90;;;;;;5014947;28;20349;-76
2022/01/11 12:37:23;;;;;;;33.33;20.50;;;1.10;99.90;;;;;;4997532;28;20033;-77
2022/01/11 12:40:00;;;;;;;33.38;20.35;;;1.10;99.90;;;;;;5019285;28;20036;-77
2022/01/11 12:42:28;;;;;;;31.85;17.83;;;1.20;99.90;;;;;;5015265;28;20026;-72
2022/01/11 12:47:26;;;;;;;28.20;16.30;;;0.90;99.90;;;;;;5014802;28;20022;-77
2022/01/11 12:50:09;;;;;;;31.65;18.73;;;1.00;99.90;;;;;;5014612;28;20388;-77
2022/01/11 12:52:35;;;;;;;;;;;1.00;99.90;;;;;;5000140;28;20049;-77
2022/01/11 12:55:03;;;;;;;45.72;26.77;;;1.00;99.90;;;;;;5015489;28;19916;-74
2022/01/11 12:57:30;;;;;;;59.08;28.95;;;1.00;99.90;;;;;;5014703;28;20045;-75